createdAt,value
2022-09-03T00:05:51.670Z,17.90
2022-09-03T00:12:54.279Z,17.81
2022-09-03T00:20:17.431Z,17.82
2022-09-03T00:27:22.662Z,17.72
2022-09-03T00:34:32.761Z,17.70
2022-09-03T00:41:44.336Z,17.59
2022-09-03T00:49:07.832Z,17.51
2022-09-03T00:56:36.706Z,17.45
2022-09-03T01:03:51.181Z,17.37
2022-09-03T01:11:03.089Z,17.29
2022-09-03T01:18:26.302Z,17.26
2022-09-03T01:25:41.057Z,17.19
2022-09-03T01:33:11.487Z,17.14
2022-09-03T01:40:36.095Z,17.07
2022-09-03T01:47:56.236Z,17.00
2022-09-03T01:55:17.084Z,16.90
2022-09-03T02:02:21.299Z,16.84
2022-09-03T02:09:23.144Z,16.81
2022-09-03T02:16:28.776Z,16.72
2022-09-03T02:23:30.888Z,16.67
2022-09-03T02:30:32.638Z,16.60
2022-09-03T02:37:34.921Z,16.57
2022-09-03T02:44:37.684Z,16.48
2022-09-03T02:51:41.774Z,16.38
2022-09-03T02:58:44.339Z,16.32
2022-09-03T03:05:55.975Z,16.25
2022-09-03T03:12:57.630Z,16.25
2022-09-03T03:19:59.320Z,16.20
2022-09-03T03:27:00.971Z,16.13
2022-09-03T03:34:02.987Z,16.12
2022-09-03T03:41:24.051Z,16.10
2022-09-03T03:48:26.168Z,16.03
2022-09-03T03:55:27.782Z,16.04
2022-09-03T04:02:29.479Z,16.02
2022-09-03T04:09:31.133Z,16.03
2022-09-03T04:16:33.067Z,16.05
2022-09-03T04:23:37.126Z,16.00
2022-09-03T04:30:38.836Z,15.93
2022-09-03T04:37:40.457Z,15.89
2022-09-03T04:44:42.156Z,15.87
2022-09-03T04:51:44.863Z,15.84
2022-09-03T04:58:46.824Z,15.84
2022-09-03T05:05:55.936Z,15.78
2022-09-03T05:13:01.395Z,15.78
2022-09-03T05:20:03.293Z,15.76
2022-09-03T05:27:04.910Z,15.85
2022-09-03T05:34:06.658Z,15.83
2022-09-03T05:41:09.531Z,15.80
2022-09-03T05:48:11.138Z,15.85
2022-09-03T05:55:13.557Z,15.88
2022-09-03T06:02:18.007Z,15.94
2022-09-03T06:09:23.468Z,16.07
2022-09-03T06:16:30.597Z,16.20
2022-09-03T06:23:34.790Z,16.31
2022-09-03T06:30:38.021Z,16.44
2022-09-03T06:37:42.747Z,16.79
2022-09-03T06:44:45.293Z,16.96
2022-09-03T06:51:47.823Z,16.97
2022-09-03T06:58:50.466Z,17.16
2022-09-03T07:05:52.116Z,17.50
2022-09-03T07:12:55.897Z,18.05
2022-09-03T07:19:57.575Z,18.50
2022-09-03T07:26:59.272Z,19.12
2022-09-03T07:34:10.254Z,19.29
2022-09-03T07:41:13.127Z,19.65
2022-09-03T07:48:28.723Z,19.76
2022-09-03T07:55:30.353Z,19.55
2022-09-03T08:02:32.064Z,19.96
2022-09-03T08:09:36.363Z,20.47
2022-09-03T08:16:43.347Z,20.50
2022-09-03T08:23:46.255Z,20.57
2022-09-03T08:30:47.885Z,21.02
2022-09-03T08:37:54.832Z,21.42
2022-09-03T08:45:00.478Z,22.06
2022-09-03T08:52:04.457Z,22.74
2022-09-03T08:59:06.046Z,23.32
2022-09-03T09:06:27.625Z,24.32
2022-09-03T09:13:42.661Z,24.86
2022-09-03T09:20:53.420Z,25.20
2022-09-03T09:27:59.498Z,25.58
2022-09-03T09:35:01.462Z,25.92
2022-09-03T09:42:09.556Z,26.91
2022-09-03T09:49:36.128Z,26.51
2022-09-03T09:56:37.777Z,26.84
2022-09-03T10:03:51.371Z,27.83
2022-09-03T10:10:53.009Z,28.27
2022-09-03T10:18:00.057Z,28.99
2022-09-03T10:25:02.630Z,29.12
2022-09-03T10:32:25.506Z,29.48
2022-09-03T10:39:58.885Z,30.45
2022-09-03T10:47:26.370Z,27.51
2022-09-03T10:54:43.152Z,26.60
2022-09-03T11:02:04.558Z,26.62
2022-09-03T11:09:38.008Z,26.62
2022-09-03T11:16:48.669Z,27.12
2022-09-03T11:24:08.769Z,26.93
2022-09-03T11:31:13.788Z,25.51
2022-09-03T11:38:15.508Z,27.81
2022-09-03T11:45:32.225Z,27.30
2022-09-03T11:52:40.254Z,27.12
2022-09-03T11:59:43.069Z,28.55
2022-09-03T12:07:08.919Z,27.71
2022-09-03T12:14:14.128Z,26.39
2022-09-03T12:21:16.937Z,26.28
2022-09-03T12:28:21.866Z,27.12
2022-09-03T12:42:46.069Z,26.23
2022-09-03T12:49:49.353Z,27.32
2022-09-03T12:56:56.561Z,27.02
2022-09-03T13:04:10.141Z,26.03
2022-09-03T13:11:18.186Z,25.87
2022-09-03T13:18:31.575Z,26.55
2022-09-03T13:25:56.045Z,27.24
2022-09-03T13:33:16.889Z,28.96
2022-09-03T13:40:23.622Z,29.39
2022-09-03T13:47:34.152Z,29.96
2022-09-03T13:54:49.100Z,29.81
2022-09-03T14:02:06.162Z,30.22
2022-09-03T14:09:26.693Z,30.78
2022-09-03T14:16:34.896Z,30.96
2022-09-03T14:23:51.480Z,30.67
2022-09-03T14:30:58.935Z,28.97
2022-09-03T14:38:37.979Z,27.58
2022-09-03T14:46:01.161Z,28.48
2022-09-03T14:53:20.907Z,28.23
2022-09-03T15:00:36.391Z,27.52
2022-09-03T15:07:54.167Z,26.79
2022-09-03T15:14:59.291Z,26.41
2022-09-03T15:22:19.034Z,26.99
2022-09-03T15:29:27.113Z,26.94
2022-09-03T15:36:36.266Z,27.74
2022-09-03T15:43:37.880Z,28.07
2022-09-03T15:51:10.524Z,28.01
2022-09-03T15:58:20.922Z,27.90
2022-09-03T16:05:39.178Z,27.79
2022-09-03T16:13:04.662Z,27.59
2022-09-03T16:20:19.333Z,27.39
2022-09-03T16:27:25.288Z,26.76
2022-09-03T16:34:35.972Z,26.32
2022-09-03T16:41:51.812Z,26.43
2022-09-03T16:49:33.680Z,26.43
2022-09-03T16:56:58.807Z,25.91
2022-09-03T17:04:09.882Z,25.46
2022-09-03T17:11:37.918Z,25.12
2022-09-03T17:19:02.213Z,25.01
2022-09-03T17:26:06.873Z,24.91
2022-09-03T17:33:45.590Z,24.81
2022-09-03T17:41:24.772Z,24.64
2022-09-03T17:48:49.709Z,24.43
2022-09-03T17:56:12.123Z,24.20
2022-09-03T18:03:19.077Z,24.08
2022-09-03T18:10:29.235Z,23.99
2022-09-03T18:17:59.162Z,23.77
2022-09-03T18:25:19.166Z,23.71
2022-09-03T18:32:39.334Z,23.68
2022-09-03T18:39:59.653Z,23.60
2022-09-03T18:55:20.573Z,23.36
2022-09-03T19:02:48.976Z,23.32
2022-09-03T19:10:14.674Z,23.23
2022-09-03T19:17:38.931Z,23.12
2022-09-03T19:24:59.346Z,23.05
2022-09-03T19:32:20.094Z,23.01
2022-09-03T19:39:49.622Z,22.94
2022-09-03T19:47:10.214Z,22.84
2022-09-03T19:54:30.519Z,22.72
2022-09-03T20:01:53.894Z,22.66
2022-09-03T20:09:14.108Z,22.58
2022-09-03T20:16:22.660Z,22.54
2022-09-03T20:23:58.227Z,22.48
2022-09-03T20:31:08.941Z,22.40
2022-09-03T20:38:36.723Z,22.35
2022-09-03T20:46:06.050Z,22.22
2022-09-03T20:53:39.152Z,22.20
2022-09-03T21:01:05.293Z,22.13
2022-09-03T21:08:31.269Z,22.06
2022-09-03T21:15:44.832Z,21.99
2022-09-03T21:22:55.901Z,21.91
2022-09-03T21:29:59.434Z,21.84
2022-09-03T21:37:03.805Z,21.71
2022-09-03T21:44:15.145Z,21.69
2022-09-03T21:51:36.042Z,21.61
2022-09-03T21:58:49.819Z,21.42
2022-09-03T22:05:58.599Z,21.37
2022-09-03T22:13:58.944Z,21.26
2022-09-03T22:21:20.453Z,21.22
2022-09-03T22:28:31.114Z,21.12
2022-09-03T22:35:46.452Z,21.02
2022-09-03T22:42:51.052Z,20.96
2022-09-03T22:50:35.364Z,20.92
2022-09-03T22:57:41.004Z,20.83
2022-09-03T23:05:08.351Z,20.76
2022-09-03T23:12:50.258Z,20.70
2022-09-03T23:27:06.544Z,20.40
2022-09-03T23:34:09.522Z,20.33
2022-09-03T23:41:13.378Z,20.25
2022-09-03T23:48:53.348Z,20.22
2022-09-03T23:56:10.805Z,20.12
